createdAt,value
2023-05-04T00:02:27.264Z,12.42
2023-05-04T00:04:54.046Z,12.29
2023-05-04T00:07:20.754Z,12.34
2023-05-04T00:09:47.215Z,12.24
2023-05-04T00:12:13.736Z,12.17
2023-05-04T00:14:40.300Z,12.08
2023-05-04T00:17:07.746Z,11.89
2023-05-04T00:19:35.638Z,12.07
2023-05-04T00:22:02.433Z,12.13
2023-05-04T00:24:29.194Z,12.12
2023-05-04T00:26:55.649Z,12.15
2023-05-04T00:29:22.103Z,12.05
2023-05-04T00:31:48.679Z,12.02
2023-05-04T00:34:16.016Z,12.12
2023-05-04T00:36:46.144Z,11.96
2023-05-04T00:39:13.258Z,11.95
2023-05-04T00:41:39.740Z,11.91
2023-05-04T00:44:06.667Z,11.68
2023-05-04T00:46:33.856Z,11.69
2023-05-04T00:49:00.377Z,11.65
2023-05-04T00:51:27.017Z,11.46
2023-05-04T00:53:57.237Z,11.14
2023-05-04T00:56:24.518Z,11.13
2023-05-04T00:58:54.260Z,11.27
2023-05-04T01:01:22.000Z,11.15
2023-05-04T01:03:49.966Z,11.08
2023-05-04T01:06:53.814Z,10.95
2023-05-04T01:09:28.038Z,11.08
2023-05-04T01:12:00.384Z,11.11
2023-05-04T01:14:27.667Z,11.16
2023-05-04T01:16:56.246Z,11.33
2023-05-04T01:19:22.933Z,11.35
2023-05-04T01:21:49.351Z,11.41
2023-05-04T01:24:16.226Z,11.49
2023-05-04T01:26:46.327Z,11.46
2023-05-04T01:29:39.094Z,11.58
2023-05-04T01:32:06.322Z,11.34
2023-05-04T01:34:33.132Z,11.40
2023-05-04T01:36:59.594Z,11.48
2023-05-04T01:39:26.533Z,11.47
2023-05-04T01:41:53.018Z,11.50
2023-05-04T01:44:19.518Z,11.42
2023-05-04T01:46:46.025Z,11.48
2023-05-04T01:49:12.484Z,11.43
2023-05-04T01:51:38.889Z,11.43
2023-05-04T01:54:05.284Z,11.47
2023-05-04T01:56:31.825Z,11.47
2023-05-04T01:58:58.283Z,11.41
2023-05-04T02:01:24.706Z,11.42
2023-05-04T02:03:51.311Z,11.40
2023-05-04T02:06:17.908Z,11.37
2023-05-04T02:08:44.467Z,11.31
2023-05-04T02:11:11.274Z,11.29
2023-05-04T02:13:37.726Z,11.31
2023-05-04T02:16:04.429Z,11.30
2023-05-04T02:18:30.936Z,11.24
2023-05-04T02:20:57.405Z,11.23
2023-05-04T02:23:23.857Z,11.12
2023-05-04T02:25:50.342Z,11.11
2023-05-04T02:28:17.161Z,11.11
2023-05-04T02:30:43.554Z,11.13
2023-05-04T02:33:10.058Z,11.06
2023-05-04T02:35:36.606Z,11.07
2023-05-04T02:38:03.023Z,11.06
2023-05-04T02:40:29.463Z,11.02
2023-05-04T02:42:56.063Z,11.02
2023-05-04T02:45:22.558Z,10.99
2023-05-04T02:47:49.052Z,10.98
2023-05-04T02:50:15.505Z,10.96
2023-05-04T02:52:41.885Z,10.97
2023-05-04T02:55:08.911Z,10.90
2023-05-04T02:57:35.415Z,10.86
2023-05-04T03:00:02.063Z,10.84
2023-05-04T03:02:28.720Z,10.83
2023-05-04T03:04:55.293Z,10.82
2023-05-04T03:07:21.689Z,10.75
2023-05-04T03:09:48.210Z,10.67
2023-05-04T03:12:14.757Z,10.67
2023-05-04T03:14:41.191Z,10.61
2023-05-04T03:17:07.892Z,10.62
2023-05-04T03:19:34.367Z,10.57
2023-05-04T03:22:00.792Z,10.48
2023-05-04T03:24:27.260Z,10.41
2023-05-04T03:26:54.625Z,10.43
2023-05-04T03:29:21.098Z,10.50
2023-05-04T03:31:47.731Z,10.44
2023-05-04T03:34:14.928Z,10.39
2023-05-04T03:36:41.411Z,10.56
2023-05-04T03:39:07.830Z,10.61
2023-05-04T03:41:34.265Z,10.60
2023-05-04T03:44:00.794Z,10.53
2023-05-04T03:46:27.211Z,10.59
2023-05-04T03:48:53.918Z,10.56
2023-05-04T03:51:20.575Z,10.51
2023-05-04T03:53:47.066Z,10.52
2023-05-04T03:56:13.503Z,10.37
2023-05-04T03:58:39.904Z,10.40
2023-05-04T04:01:06.318Z,10.44
2023-05-04T04:03:33.133Z,10.45
2023-05-04T04:05:59.692Z,10.49
2023-05-04T04:08:26.160Z,10.39
2023-05-04T04:10:52.608Z,10.35
2023-05-04T04:13:19.169Z,10.35
2023-05-04T04:15:46.496Z,10.48
2023-05-04T04:18:13.098Z,10.46
2023-05-04T04:20:39.509Z,10.50
2023-05-04T04:23:05.927Z,10.52
2023-05-04T04:25:32.508Z,10.48
2023-05-04T04:27:58.945Z,10.51
2023-05-04T04:30:25.727Z,10.49
2023-05-04T04:32:52.359Z,10.56
2023-05-04T04:35:18.813Z,10.56
2023-05-04T04:37:45.285Z,10.70
2023-05-04T04:40:13.043Z,10.82
2023-05-04T04:42:39.512Z,10.97
2023-05-04T04:45:06.745Z,11.09
2023-05-04T04:47:33.296Z,11.56
2023-05-04T04:49:59.846Z,12.68
2023-05-04T04:52:26.314Z,13.29
2023-05-04T04:54:52.809Z,12.90
2023-05-04T04:57:19.214Z,12.67
2023-05-04T04:59:46.359Z,12.58
2023-05-04T05:02:12.764Z,12.94
2023-05-04T05:04:40.123Z,13.43
2023-05-04T05:07:08.784Z,13.46
2023-05-04T05:09:35.318Z,13.60
2023-05-04T05:12:01.917Z,13.66
2023-05-04T05:14:28.381Z,13.70
2023-05-04T05:16:54.833Z,13.79
2023-05-04T05:19:21.270Z,13.44
2023-05-04T05:21:47.658Z,13.24
2023-05-04T05:24:14.098Z,13.26
2023-05-04T05:26:40.614Z,13.27
2023-05-04T05:29:07.053Z,13.39
2023-05-04T05:31:33.666Z,13.66
2023-05-04T05:34:00.168Z,13.61
2023-05-04T05:36:27.044Z,13.49
2023-05-04T05:38:53.612Z,13.87
2023-05-04T05:41:20.058Z,14.02
2023-05-04T05:43:46.455Z,14.06
2023-05-04T05:46:14.639Z,14.37
2023-05-04T05:48:42.650Z,14.47
2023-05-04T05:51:09.076Z,14.41
2023-05-04T05:53:35.564Z,14.33
2023-05-04T05:56:02.038Z,14.09
2023-05-04T05:58:28.480Z,14.21
2023-05-04T06:00:56.074Z,14.46
2023-05-04T06:03:22.758Z,14.65
2023-05-04T06:05:49.363Z,14.02
2023-05-04T06:08:15.822Z,14.69
2023-05-04T06:10:42.922Z,14.66
2023-05-04T06:13:09.467Z,14.58
2023-05-04T06:15:36.606Z,14.78
2023-05-04T06:18:03.144Z,14.80
2023-05-04T06:20:29.639Z,14.87
2023-05-04T06:22:57.008Z,15.24
2023-05-04T06:25:23.455Z,15.14
2023-05-04T06:27:49.865Z,15.02
2023-05-04T06:30:16.505Z,15.41
2023-05-04T06:32:43.046Z,15.23
2023-05-04T06:35:09.780Z,15.44
2023-05-04T06:37:36.279Z,15.80
2023-05-04T06:40:04.044Z,15.23
2023-05-04T06:42:33.631Z,15.80
2023-05-04T06:45:00.075Z,15.76
2023-05-04T06:47:26.646Z,15.50
2023-05-04T06:49:53.256Z,15.63
2023-05-04T06:52:19.671Z,15.75
2023-05-04T06:54:46.231Z,16.00
2023-05-04T06:57:12.759Z,16.15
2023-05-04T06:59:39.300Z,16.49
2023-05-04T07:02:05.714Z,16.37
2023-05-04T07:04:32.165Z,16.77
2023-05-04T07:06:58.606Z,16.83
2023-05-04T07:09:25.113Z,16.94
2023-05-04T07:11:51.511Z,16.84
2023-05-04T07:14:17.979Z,16.92
2023-05-04T07:16:44.585Z,16.87
2023-05-04T07:19:11.379Z,16.75
2023-05-04T07:21:37.853Z,17.04
2023-05-04T07:24:05.140Z,17.26
2023-05-04T07:26:31.572Z,17.69
2023-05-04T07:28:58.025Z,17.52
2023-05-04T07:31:24.462Z,17.65
2023-05-04T07:33:51.088Z,18.08
2023-05-04T07:36:17.798Z,18.38
2023-05-04T07:38:44.203Z,18.59
2023-05-04T07:41:10.671Z,18.85
2023-05-04T07:43:37.159Z,18.92
2023-05-04T07:46:05.053Z,18.48
2023-05-04T07:48:33.703Z,18.76
2023-05-04T07:51:00.217Z,19.11
2023-05-04T07:53:27.055Z,19.11
2023-05-04T07:56:00.864Z,18.59
2023-05-04T07:58:27.334Z,18.93
2023-05-04T08:00:53.843Z,19.23
2023-05-04T08:03:20.318Z,19.13
2023-05-04T08:05:46.846Z,18.96
2023-05-04T08:08:13.226Z,18.91
2023-05-04T08:10:40.752Z,19.49
2023-05-04T08:13:07.198Z,19.71
2023-05-04T08:15:33.688Z,19.65
2023-05-04T08:18:00.313Z,19.06
2023-05-04T08:20:26.831Z,19.28
2023-05-04T08:22:53.527Z,19.69
2023-05-04T08:25:20.060Z,19.57
2023-05-04T08:27:46.783Z,19.49
2023-05-04T08:30:13.562Z,19.02
2023-05-04T08:32:40.113Z,18.97
2023-05-04T08:35:06.837Z,18.93
2023-05-04T08:37:33.998Z,19.07
2023-05-04T08:40:00.506Z,19.40
2023-05-04T08:42:31.181Z,20.02
2023-05-04T08:44:58.353Z,20.14
2023-05-04T08:47:26.303Z,19.81
2023-05-04T08:49:54.031Z,19.63
2023-05-04T08:52:24.240Z,19.82
2023-05-04T08:54:54.384Z,19.85
2023-05-04T08:57:22.807Z,20.03
2023-05-04T08:59:51.381Z,20.03
2023-05-04T09:02:21.480Z,20.04
2023-05-04T09:04:52.214Z,20.25
2023-05-04T09:07:20.410Z,20.50
2023-05-04T09:09:47.297Z,20.78
2023-05-04T09:12:14.377Z,20.54
2023-05-04T09:14:41.416Z,20.52
2023-05-04T09:17:25.513Z,20.40
2023-05-04T09:20:02.882Z,20.59
2023-05-04T09:22:29.940Z,20.72
2023-05-04T09:25:09.506Z,20.94
2023-05-04T09:27:36.037Z,21.13
2023-05-04T09:30:02.489Z,21.16
2023-05-04T09:32:29.891Z,21.50
2023-05-04T09:34:56.621Z,21.70
2023-05-04T09:37:23.156Z,21.40
2023-05-04T09:39:59.009Z,21.24
2023-05-04T09:42:26.684Z,21.43
2023-05-04T09:45:00.942Z,21.04
2023-05-04T09:47:41.464Z,21.30
2023-05-04T09:50:16.825Z,21.36
2023-05-04T09:52:46.768Z,21.55
2023-05-04T09:55:14.924Z,21.85
2023-05-04T09:57:42.625Z,21.62
2023-05-04T10:00:17.243Z,21.79
2023-05-04T10:02:45.410Z,21.84
2023-05-04T10:05:17.258Z,22.10
2023-05-04T10:07:44.625Z,22.31
2023-05-04T10:10:15.019Z,21.88
2023-05-04T10:12:41.523Z,21.90
2023-05-04T10:15:10.372Z,22.29
2023-05-04T10:17:39.802Z,22.09
2023-05-04T10:20:07.255Z,22.01
2023-05-04T10:22:53.311Z,21.87
2023-05-04T10:25:27.933Z,22.24
2023-05-04T10:28:04.514Z,22.42
2023-05-04T10:30:31.771Z,22.34
2023-05-04T10:35:25.652Z,22.22
2023-05-04T10:37:55.698Z,22.65
2023-05-04T10:40:35.174Z,22.57
2023-05-04T10:43:01.585Z,23.25
2023-05-04T10:45:38.352Z,23.01
2023-05-04T10:48:05.733Z,22.65
2023-05-04T10:50:42.808Z,22.98
2023-05-04T10:53:09.284Z,23.19
2023-05-04T10:55:40.678Z,22.95
2023-05-04T10:58:07.539Z,23.41
2023-05-04T11:00:38.395Z,23.53
2023-05-04T11:03:06.153Z,23.69
2023-05-04T11:05:42.619Z,23.47
2023-05-04T11:08:22.615Z,23.34
2023-05-04T11:11:03.368Z,23.39
2023-05-04T11:13:33.652Z,23.32
2023-05-04T11:16:00.398Z,23.56
2023-05-04T11:18:35.297Z,23.97
2023-05-04T11:21:02.452Z,23.63
2023-05-04T11:23:28.979Z,23.34
2023-05-04T11:25:56.435Z,23.15
2023-05-04T11:28:35.951Z,23.70
2023-05-04T11:31:12.880Z,23.62
2023-05-04T11:33:44.912Z,23.43
2023-05-04T11:36:11.432Z,23.76
2023-05-04T11:38:38.005Z,24.23
2023-05-04T11:41:04.396Z,24.19
2023-05-04T11:43:32.159Z,24.13
2023-05-04T11:46:00.888Z,24.01
2023-05-04T11:48:28.644Z,23.51
2023-05-04T11:50:55.942Z,23.86
2023-05-04T11:53:23.204Z,24.08
2023-05-04T11:55:50.106Z,23.96
2023-05-04T11:58:24.129Z,24.59
2023-05-04T12:03:52.061Z,24.65
2023-05-04T12:06:31.349Z,24.87
2023-05-04T12:09:05.803Z,24.89
2023-05-04T12:11:32.789Z,24.41
2023-05-04T12:14:13.277Z,24.45
2023-05-04T12:16:40.092Z,24.56
2023-05-04T12:19:08.263Z,24.42
2023-05-04T12:21:35.915Z,24.69
2023-05-04T12:24:03.660Z,24.84
2023-05-04T12:26:30.485Z,24.86
2023-05-04T12:28:57.125Z,25.03
2023-05-04T12:31:25.318Z,25.33
2023-05-04T12:33:52.155Z,25.55
2023-05-04T12:36:18.877Z,25.24
2023-05-04T12:38:46.104Z,25.39
2023-05-04T12:41:12.720Z,25.03
2023-05-04T12:43:39.318Z,25.24
2023-05-04T12:46:05.999Z,25.21
2023-05-04T12:48:32.988Z,25.29
2023-05-04T12:51:00.822Z,25.24
2023-05-04T12:53:32.033Z,25.28
2023-05-04T12:55:59.600Z,25.54
2023-05-04T12:58:26.059Z,25.38
2023-05-04T13:00:52.466Z,25.53
2023-05-04T13:03:19.352Z,25.39
2023-05-04T13:05:47.376Z,25.40
2023-05-04T13:08:13.836Z,24.99
2023-05-04T13:10:40.315Z,25.21
2023-05-04T13:13:07.403Z,25.60
2023-05-04T13:15:33.926Z,25.60
2023-05-04T13:18:00.501Z,25.24
2023-05-04T13:20:27.134Z,25.54
2023-05-04T13:22:54.589Z,25.31
2023-05-04T13:25:22.539Z,25.55
2023-05-04T13:27:49.070Z,25.82
2023-05-04T13:30:17.849Z,25.68
2023-05-04T13:32:44.314Z,25.72
2023-05-04T13:35:10.836Z,25.70
2023-05-04T13:37:38.127Z,25.43
2023-05-04T13:40:05.099Z,25.95
2023-05-04T13:42:31.539Z,25.69
2023-05-04T13:44:58.126Z,25.70
2023-05-04T13:47:24.764Z,25.81
2023-05-04T13:49:51.363Z,25.93
2023-05-04T13:52:17.798Z,25.57
2023-05-04T13:54:44.302Z,25.71
2023-05-04T13:57:10.772Z,26.14
2023-05-04T13:59:37.200Z,25.81
2023-05-04T14:02:03.677Z,26.17
2023-05-04T14:04:30.435Z,26.02
2023-05-04T14:06:57.581Z,26.24
2023-05-04T14:09:25.589Z,25.99
2023-05-04T14:11:52.123Z,25.90
2023-05-04T14:14:18.498Z,26.07
2023-05-04T14:16:45.043Z,26.33
2023-05-04T14:19:11.630Z,26.54
2023-05-04T14:21:38.032Z,26.31
2023-05-04T14:24:04.491Z,26.21
2023-05-04T14:26:34.629Z,26.21
2023-05-04T14:29:01.287Z,26.31
2023-05-04T14:31:27.710Z,26.27
2023-05-04T14:33:56.694Z,26.67
2023-05-04T14:36:23.407Z,26.54
2023-05-04T14:38:50.208Z,26.47
2023-05-04T14:41:16.625Z,26.36
2023-05-04T14:43:43.061Z,26.58
2023-05-04T14:46:09.794Z,26.05
2023-05-04T14:48:36.307Z,26.20
2023-05-04T14:51:03.284Z,26.64
2023-05-04T14:53:33.177Z,26.81
2023-05-04T14:55:59.619Z,27.01
2023-05-04T14:58:26.109Z,26.72
2023-05-04T15:00:53.391Z,26.70
2023-05-04T15:03:19.973Z,26.63
2023-05-04T15:05:46.539Z,26.50
2023-05-04T15:08:12.982Z,26.86
2023-05-04T15:10:39.418Z,26.82
2023-05-04T15:13:05.820Z,26.54
2023-05-04T15:15:32.298Z,26.19
2023-05-04T15:17:58.956Z,26.36
2023-05-04T15:20:25.398Z,26.65
2023-05-04T15:22:53.869Z,26.48
2023-05-04T15:25:23.741Z,26.57
2023-05-04T15:27:50.221Z,26.52
2023-05-04T15:30:17.250Z,26.31
2023-05-04T15:32:43.738Z,26.31
2023-05-04T15:35:10.451Z,26.55
2023-05-04T15:37:36.985Z,26.62
2023-05-04T15:40:04.680Z,26.59
2023-05-04T15:42:31.908Z,26.84
2023-05-04T15:44:58.397Z,26.39
2023-05-04T15:47:25.882Z,26.60
2023-05-04T15:49:52.444Z,26.56
2023-05-04T15:52:19.023Z,26.46
2023-05-04T15:54:47.222Z,26.13
2023-05-04T15:57:14.888Z,26.37
2023-05-04T15:59:41.402Z,26.22
2023-05-04T16:02:08.252Z,26.22
2023-05-04T16:04:34.740Z,26.39
2023-05-04T16:07:01.324Z,26.04
2023-05-04T16:09:29.994Z,26.23
2023-05-04T16:11:56.398Z,26.46
2023-05-04T16:14:22.792Z,26.59
2023-05-04T16:16:49.306Z,26.29
2023-05-04T16:19:15.863Z,26.53
2023-05-04T16:21:42.281Z,26.19
2023-05-04T16:24:10.050Z,26.48
2023-05-04T16:26:36.569Z,26.68
2023-05-04T16:29:02.973Z,26.65
2023-05-04T16:31:29.465Z,26.90
2023-05-04T16:33:56.331Z,27.33
2023-05-04T16:36:22.986Z,26.45
2023-05-04T16:38:49.797Z,26.50
2023-05-04T16:41:17.506Z,26.34
2023-05-04T16:43:43.902Z,26.31
2023-05-04T16:46:10.478Z,26.17
2023-05-04T16:48:40.149Z,27.34
2023-05-04T16:51:08.182Z,26.92
2023-05-04T16:53:35.308Z,26.60
2023-05-04T16:56:01.735Z,26.81
2023-05-04T16:58:28.414Z,26.82
2023-05-04T17:00:55.537Z,26.82
2023-05-04T17:03:22.079Z,26.80
2023-05-04T17:05:48.598Z,26.87
2023-05-04T17:08:17.048Z,26.53
2023-05-04T17:10:43.618Z,26.28
2023-05-04T17:13:10.222Z,26.35
2023-05-04T17:15:37.071Z,26.31
2023-05-04T17:18:03.555Z,26.24
2023-05-04T17:20:31.746Z,26.12
2023-05-04T17:23:01.242Z,25.93
2023-05-04T17:25:27.713Z,25.72
2023-05-04T17:27:54.492Z,25.38
2023-05-04T17:30:21.216Z,25.37
2023-05-04T17:32:48.548Z,25.53
2023-05-04T17:35:24.596Z,25.27
2023-05-04T17:37:55.128Z,25.24
2023-05-04T17:40:23.592Z,25.37
2023-05-04T17:42:50.029Z,25.34
2023-05-04T17:45:16.552Z,25.35
2023-05-04T17:47:44.859Z,25.31
2023-05-04T17:50:11.442Z,25.08
2023-05-04T17:52:38.116Z,24.93
2023-05-04T17:55:04.954Z,24.95
2023-05-04T17:57:31.808Z,24.85
2023-05-04T17:59:58.241Z,24.77
2023-05-04T18:02:24.696Z,24.63
2023-05-04T18:04:51.204Z,24.69
2023-05-04T18:07:17.669Z,24.46
2023-05-04T18:09:44.157Z,24.33
2023-05-04T18:12:10.732Z,24.39
2023-05-04T18:14:37.150Z,24.31
2023-05-04T18:17:03.587Z,24.05
2023-05-04T18:19:31.796Z,24.11
2023-05-04T18:21:58.246Z,24.21
2023-05-04T18:24:24.664Z,24.20
2023-05-04T18:26:53.409Z,24.20
2023-05-04T18:29:19.980Z,24.06
2023-05-04T18:31:46.710Z,24.01
2023-05-04T18:34:13.237Z,24.05
2023-05-04T18:36:39.675Z,24.01
2023-05-04T18:39:06.080Z,23.85
2023-05-04T18:41:32.544Z,23.49
2023-05-04T18:44:00.862Z,23.70
2023-05-04T18:46:27.338Z,23.70
2023-05-04T18:48:53.736Z,23.52
2023-05-04T18:51:20.227Z,22.94
2023-05-04T18:53:48.051Z,23.06
2023-05-04T18:56:14.514Z,22.99
2023-05-04T18:58:40.978Z,22.77
2023-05-04T19:01:07.478Z,22.73
2023-05-04T19:03:34.176Z,22.90
2023-05-04T19:06:01.218Z,22.83
2023-05-04T19:08:27.693Z,22.73
2023-05-04T19:10:57.422Z,22.55
2023-05-04T19:13:23.882Z,22.60
2023-05-04T19:15:50.797Z,22.44
2023-05-04T19:18:17.358Z,22.50
2023-05-04T19:20:44.070Z,22.33
2023-05-04T19:23:10.572Z,22.22
2023-05-04T19:25:37.066Z,22.32
2023-05-04T19:28:08.546Z,22.05
2023-05-04T19:30:39.208Z,22.17
2023-05-04T19:33:06.680Z,22.04
2023-05-04T19:35:33.435Z,22.06
2023-05-04T19:38:01.635Z,21.56
2023-05-04T19:40:28.338Z,21.53
2023-05-04T19:42:55.182Z,21.52
2023-05-04T19:45:21.598Z,21.62
2023-05-04T19:47:50.132Z,21.44
2023-05-04T19:50:16.818Z,21.33
2023-05-04T19:52:43.356Z,21.27
2023-05-04T19:55:10.041Z,21.17
2023-05-04T19:57:36.622Z,21.02
2023-05-04T20:00:04.633Z,21.08
2023-05-04T20:02:32.295Z,21.15
2023-05-04T20:04:58.899Z,20.97
2023-05-04T20:07:25.345Z,20.69
2023-05-04T20:09:51.737Z,20.76
2023-05-04T20:12:18.175Z,20.63
2023-05-04T20:14:44.607Z,20.51
2023-05-04T20:17:11.634Z,20.59
2023-05-04T20:19:38.800Z,20.57
2023-05-04T20:22:05.195Z,20.47
2023-05-04T20:24:31.599Z,20.63
2023-05-04T20:26:58.001Z,20.39
2023-05-04T20:29:24.525Z,20.22
2023-05-04T20:31:51.084Z,19.77
2023-05-04T20:34:19.032Z,19.91
2023-05-04T20:36:46.900Z,19.97
2023-05-04T20:39:13.471Z,20.22
2023-05-04T20:41:40.631Z,20.04
2023-05-04T20:44:07.125Z,20.18
2023-05-04T20:46:33.659Z,20.04
2023-05-04T20:49:02.733Z,19.87
2023-05-04T20:51:29.415Z,19.44
2023-05-04T20:53:55.849Z,19.52
2023-05-04T20:56:22.546Z,19.76
2023-05-04T20:58:48.980Z,19.74
2023-05-04T21:01:15.526Z,19.55
2023-05-04T21:03:42.193Z,19.34
2023-05-04T21:06:08.688Z,19.37
2023-05-04T21:08:35.121Z,19.07
2023-05-04T21:11:01.566Z,18.99
2023-05-04T21:13:28.014Z,19.10
2023-05-04T21:15:54.481Z,19.08
2023-05-04T21:18:21.358Z,18.96
2023-05-04T21:20:47.824Z,18.92
2023-05-04T21:23:14.303Z,18.81
2023-05-04T21:25:40.718Z,18.66
2023-05-04T21:28:07.094Z,18.49
2023-05-04T21:30:33.529Z,18.73
2023-05-04T21:33:00.728Z,18.66
2023-05-04T21:35:30.855Z,18.63
2023-05-04T21:37:58.613Z,18.48
2023-05-04T21:40:28.653Z,18.28
2023-05-04T21:42:55.381Z,18.44
2023-05-04T21:45:21.861Z,18.34
2023-05-04T21:47:48.545Z,18.11
2023-05-04T21:50:15.295Z,18.28
2023-05-04T21:52:41.750Z,18.25
2023-05-04T21:55:08.261Z,18.03
2023-05-04T21:57:35.158Z,17.97
2023-05-04T22:00:01.958Z,18.01
2023-05-04T22:02:28.445Z,18.18
2023-05-04T22:04:54.956Z,18.20
2023-05-04T22:07:21.545Z,17.89
2023-05-04T22:09:48.117Z,17.75
2023-05-04T22:12:14.556Z,17.71
2023-05-04T22:14:42.430Z,17.70
2023-05-04T22:17:09.153Z,17.76
2023-05-04T22:19:35.562Z,17.59
2023-05-04T22:22:01.980Z,17.54
2023-05-04T22:24:28.476Z,17.48
2023-05-04T22:26:54.907Z,17.44
2023-05-04T22:29:21.343Z,17.20
2023-05-04T22:31:47.770Z,17.33
2023-05-04T22:34:14.181Z,17.25
2023-05-04T22:36:40.723Z,17.30
2023-05-04T22:39:07.192Z,17.35
2023-05-04T22:41:33.664Z,17.37
2023-05-04T22:44:00.429Z,17.50
2023-05-04T22:46:26.968Z,17.52
2023-05-04T22:48:53.406Z,17.34
2023-05-04T22:51:20.220Z,17.06
2023-05-04T22:53:46.777Z,16.72
2023-05-04T22:56:13.165Z,16.89
2023-05-04T22:58:39.564Z,17.11
2023-05-04T23:01:10.480Z,16.68
2023-05-04T23:03:37.916Z,16.73
2023-05-04T23:06:05.120Z,16.66
2023-05-04T23:08:31.766Z,16.60
2023-05-04T23:10:58.172Z,16.67
2023-05-04T23:13:24.671Z,16.75
2023-05-04T23:15:51.799Z,16.59
2023-05-04T23:18:18.226Z,16.67
2023-05-04T23:20:44.622Z,16.55
2023-05-04T23:23:11.707Z,16.45
2023-05-04T23:25:38.280Z,16.50
2023-05-04T23:28:05.226Z,16.52
2023-05-04T23:30:31.675Z,16.52
2023-05-04T23:32:58.471Z,16.24
2023-05-04T23:35:26.673Z,16.33
2023-05-04T23:37:53.128Z,16.04
2023-05-04T23:40:19.859Z,16.03
2023-05-04T23:42:50.432Z,15.94
2023-05-04T23:45:16.977Z,15.81
2023-05-04T23:47:43.468Z,15.81
2023-05-04T23:50:10.439Z,15.70
2023-05-04T23:52:37.141Z,15.86
2023-05-04T23:55:03.921Z,16.05
2023-05-04T23:57:30.355Z,16.07
2023-05-04T23:59:57.144Z,16.06
